sensor_id;sensor_type;location;lat;lon;timestamp;temperature;humidity
23755;DHT22;12057;52.042;6.830;2023-04-22T00:03:13;10.00;99.90
23755;DHT22;12057;52.042;6.830;2023-04-22T00:08:14;10.10;99.90
23755;DHT22;12057;52.042;6.830;2023-04-22T00:13:15;10.00;99.90
23755;DHT22;12057;52.042;6.830;2023-04-22T00:18:16;9.90;99.90
23755;DHT22;12057;52.042;6.830;2023-04-22T00:23:17;9.80;99.90
23755;DHT22;12057;52.042;6.830;2023-04-22T00:28:18;9.80;99.90
23755;DHT22;12057;52.042;6.830;2023-04-22T00:33:19;9.70;99.90
23755;DHT22;12057;52.042;6.830;2023-04-22T00:38:20;9.70;99.90
23755;DHT22;12057;52.042;6.830;2023-04-22T00:43:21;9.60;99.90
23755;DHT22;12057;52.042;6.830;2023-04-22T00:48:23;9.50;99.90
23755;DHT22;12057;52.042;6.830;2023-04-22T00:53:25;9.40;99.90
23755;DHT22;12057;52.042;6.830;2023-04-22T00:58:28;9.30;99.90
23755;DHT22;12057;52.042;6.830;2023-04-22T01:03:29;9.30;99.90
23755;DHT22;12057;52.042;6.830;2023-04-22T01:08:30;9.20;99.90
23755;DHT22;12057;52.042;6.830;2023-04-22T01:13:31;9.10;99.90
23755;DHT22;12057;52.042;6.830;2023-04-22T01:18:32;9.10;99.90
23755;DHT22;12057;52.042;6.830;2023-04-22T01:23:33;9.10;99.90
23755;DHT22;12057;52.042;6.830;2023-04-22T01:28:34;9.00;99.90
23755;DHT22;12057;52.042;6.830;2023-04-22T01:33:35;9.10;99.90
23755;DHT22;12057;52.042;6.830;2023-04-22T01:38:36;9.00;99.90
23755;DHT22;12057;52.042;6.830;2023-04-22T01:43:37;8.90;99.90
23755;DHT22;12057;52.042;6.830;2023-04-22T01:48:39;9.00;99.90
23755;DHT22;12057;52.042;6.830;2023-04-22T01:53:40;8.90;99.90
23755;DHT22;12057;52.042;6.830;2023-04-22T01:58:41;8.70;99.90
23755;DHT22;12057;52.042;6.830;2023-04-22T02:03:42;8.80;99.90
23755;DHT22;12057;52.042;6.830;2023-04-22T02:08:43;8.70;99.90
23755;DHT22;12057;52.042;6.830;2023-04-22T02:13:43;8.70;99.90
23755;DHT22;12057;52.042;6.830;2023-04-22T02:18:44;8.80;99.90
23755;DHT22;12057;52.042;6.830;2023-04-22T02:23:45;8.70;99.90
23755;DHT22;12057;52.042;6.830;2023-04-22T02:28:46;8.70;99.90
23755;DHT22;12057;52.042;6.830;2023-04-22T02:33:46;8.70;99.90
23755;DHT22;12057;52.042;6.830;2023-04-22T02:38:48;8.80;99.90
23755;DHT22;12057;52.042;6.830;2023-04-22T02:43:49;8.80;99.90
23755;DHT22;12057;52.042;6.830;2023-04-22T02:48:50;8.80;99.90
23755;DHT22;12057;52.042;6.830;2023-04-22T02:53:51;8.80;99.90
23755;DHT22;12057;52.042;6.830;2023-04-22T02:58:52;8.90;99.90
23755;DHT22;12057;52.042;6.830;2023-04-22T03:03:52;8.90;99.90
23755;DHT22;12057;52.042;6.830;2023-04-22T03:08:53;8.90;99.90
23755;DHT22;12057;52.042;6.830;2023-04-22T03:13:54;8.90;99.90
23755;DHT22;12057;52.042;6.830;2023-04-22T03:18:55;8.90;99.90
23755;DHT22;12057;52.042;6.830;2023-04-22T03:23:55;9.00;99.90
23755;DHT22;12057;52.042;6.830;2023-04-22T03:29:00;9.00;99.90
23755;DHT22;12057;52.042;6.830;2023-04-22T03:34:04;9.10;99.90
23755;DHT22;12057;52.042;6.830;2023-04-22T03:39:05;9.10;99.90
23755;DHT22;12057;52.042;6.830;2023-04-22T03:44:06;9.10;99.90
23755;DHT22;12057;52.042;6.830;2023-04-22T03:49:07;9.20;99.90
23755;DHT22;12057;52.042;6.830;2023-04-22T03:54:07;9.20;99.90
23755;DHT22;12057;52.042;6.830;2023-04-22T03:59:08;9.30;99.90
23755;DHT22;12057;52.042;6.830;2023-04-22T04:04:09;9.30;99.90
23755;DHT22;12057;52.042;6.830;2023-04-22T04:09:10;9.40;99.90
23755;DHT22;12057;52.042;6.830;2023-04-22T04:14:11;9.40;99.90
23755;DHT22;12057;52.042;6.830;2023-04-22T04:19:12;9.40;99.90
23755;DHT22;12057;52.042;6.830;2023-04-22T04:24:12;9.40;99.90
23755;DHT22;12057;52.042;6.830;2023-04-22T04:29:13;9.40;99.90
23755;DHT22;12057;52.042;6.830;2023-04-22T04:34:15;9.40;99.90
23755;DHT22;12057;52.042;6.830;2023-04-22T04:39:16;9.50;99.90
23755;DHT22;12057;52.042;6.830;2023-04-22T04:44:16;9.50;99.90
23755;DHT22;12057;52.042;6.830;2023-04-22T04:49:17;9.50;99.90
23755;DHT22;12057;52.042;6.830;2023-04-22T04:54:21;9.60;99.90
23755;DHT22;12057;52.042;6.830;2023-04-22T04:59:22;9.60;99.90
23755;DHT22;12057;52.042;6.830;2023-04-22T05:04:23;9.60;99.90
23755;DHT22;12057;52.042;6.830;2023-04-22T05:09:23;9.60;99.90
23755;DHT22;12057;52.042;6.830;2023-04-22T05:14:24;9.60;99.90
23755;DHT22;12057;52.042;6.830;2023-04-22T05:19:25;9.60;99.90
23755;DHT22;12057;52.042;6.830;2023-04-22T05:24:26;9.70;99.90
23755;DHT22;12057;52.042;6.830;2023-04-22T05:29:27;9.70;99.90
23755;DHT22;12057;52.042;6.830;2023-04-22T05:34:28;9.80;99.90
23755;DHT22;12057;52.042;6.830;2023-04-22T05:39:28;9.80;99.90
23755;DHT22;12057;52.042;6.830;2023-04-22T05:44:29;9.90;99.90
23755;DHT22;12057;52.042;6.830;2023-04-22T05:49:30;10.00;99.90
23755;DHT22;12057;52.042;6.830;2023-04-22T05:54:31;10.00;99.90
23755;DHT22;12057;52.042;6.830;2023-04-22T05:59:31;10.10;99.90
23755;DHT22;12057;52.042;6.830;2023-04-22T06:04:32;10.10;99.90
23755;DHT22;12057;52.042;6.830;2023-04-22T06:09:36;10.20;99.90
23755;DHT22;12057;52.042;6.830;2023-04-22T06:14:37;10.30;99.90
23755;DHT22;12057;52.042;6.830;2023-04-22T06:19:37;10.40;99.90
23755;DHT22;12057;52.042;6.830;2023-04-22T06:24:38;10.50;99.90
23755;DHT22;12057;52.042;6.830;2023-04-22T06:29:39;10.60;99.90
23755;DHT22;12057;52.042;6.830;2023-04-22T06:34:40;10.70;99.90
23755;DHT22;12057;52.042;6.830;2023-04-22T06:39:41;10.80;99.90
23755;DHT22;12057;52.042;6.830;2023-04-22T06:44:41;10.80;99.90
23755;DHT22;12057;52.042;6.830;2023-04-22T06:49:42;11.00;99.90
23755;DHT22;12057;52.042;6.830;2023-04-22T06:54:44;11.10;99.90
23755;DHT22;12057;52.042;6.830;2023-04-22T06:59:48;11.30;99.90
23755;DHT22;12057;52.042;6.830;2023-04-22T07:04:48;11.50;99.90
23755;DHT22;12057;52.042;6.830;2023-04-22T07:09:49;11.50;99.90
23755;DHT22;12057;52.042;6.830;2023-04-22T07:14:50;11.60;99.90
23755;DHT22;12057;52.042;6.830;2023-04-22T07:19:51;11.70;99.90
23755;DHT22;12057;52.042;6.830;2023-04-22T07:24:52;11.80;99.90
23755;DHT22;12057;52.042;6.830;2023-04-22T07:29:56;11.90;99.90
23755;DHT22;12057;52.042;6.830;2023-04-22T07:34:57;12.20;99.90
23755;DHT22;12057;52.042;6.830;2023-04-22T07:39:58;12.60;99.90
23755;DHT22;12057;52.042;6.830;2023-04-22T07:44:58;13.00;99.90
23755;DHT22;12057;52.042;6.830;2023-04-22T07:49:59;13.50;99.90
23755;DHT22;12057;52.042;6.830;2023-04-22T07:55:00;13.80;99.90
23755;DHT22;12057;52.042;6.830;2023-04-22T08:00:01;14.20;99.90
23755;DHT22;12057;52.042;6.830;2023-04-22T08:05:01;14.50;99.90
23755;DHT22;12057;52.042;6.830;2023-04-22T08:10:03;14.80;99.90
23755;DHT22;12057;52.042;6.830;2023-04-22T08:15:04;15.00;99.90
23755;DHT22;12057;52.042;6.830;2023-04-22T08:20:05;15.40;99.90
23755;DHT22;12057;52.042;6.830;2023-04-22T08:25:07;15.60;99.90
23755;DHT22;12057;52.042;6.830;2023-04-22T08:30:09;15.80;99.90
23755;DHT22;12057;52.042;6.830;2023-04-22T08:35:09;15.90;99.90
23755;DHT22;12057;52.042;6.830;2023-04-22T08:40:10;16.10;99.90
23755;DHT22;12057;52.042;6.830;2023-04-22T08:45:12;16.00;99.90
23755;DHT22;12057;52.042;6.830;2023-04-22T08:50:14;16.10;99.90
23755;DHT22;12057;52.042;6.830;2023-04-22T08:55:15;16.30;99.90
23755;DHT22;12057;52.042;6.830;2023-04-22T09:00:16;16.60;99.90
23755;DHT22;12057;52.042;6.830;2023-04-22T09:05:22;17.00;99.90
23755;DHT22;12057;52.042;6.830;2023-04-22T09:10:25;17.20;99.90
23755;DHT22;12057;52.042;6.830;2023-04-22T09:15:25;17.50;99.90
23755;DHT22;12057;52.042;6.830;2023-04-22T09:20:28;17.50;99.90
23755;DHT22;12057;52.042;6.830;2023-04-22T09:25:31;17.30;99.90
23755;DHT22;12057;52.042;6.830;2023-04-22T09:30:38;17.20;99.90
23755;DHT22;12057;52.042;6.830;2023-04-22T09:35:40;17.10;99.90
23755;DHT22;12057;52.042;6.830;2023-04-22T09:40:42;17.20;99.90
23755;DHT22;12057;52.042;6.830;2023-04-22T09:45:43;17.40;99.90
23755;DHT22;12057;52.042;6.830;2023-04-22T09:50:49;17.40;99.90
23755;DHT22;12057;52.042;6.830;2023-04-22T09:55:53;17.80;99.90
23755;DHT22;12057;52.042;6.830;2023-04-22T10:00:55;18.10;99.90
23755;DHT22;12057;52.042;6.830;2023-04-22T10:05:57;18.20;99.90
23755;DHT22;12057;52.042;6.830;2023-04-22T10:10:58;18.40;99.90
23755;DHT22;12057;52.042;6.830;2023-04-22T10:15:59;18.80;99.90
23755;DHT22;12057;52.042;6.830;2023-04-22T10:21:00;19.50;99.90
23755;DHT22;12057;52.042;6.830;2023-04-22T10:26:04;19.90;99.90
23755;DHT22;12057;52.042;6.830;2023-04-22T10:31:19;20.00;99.90
23755;DHT22;12057;52.042;6.830;2023-04-22T10:36:23;20.30;99.90
23755;DHT22;12057;52.042;6.830;2023-04-22T10:41:28;20.70;99.90
23755;DHT22;12057;52.042;6.830;2023-04-22T10:51:40;21.20;99.90
23755;DHT22;12057;52.042;6.830;2023-04-22T11:17:39;21.40;99.90
23755;DHT22;12057;52.042;6.830;2023-04-22T11:22:43;21.40;99.90
23755;DHT22;12057;52.042;6.830;2023-04-22T11:27:44;21.80;99.90
23755;DHT22;12057;52.042;6.830;2023-04-22T11:32:47;21.80;99.90
23755;DHT22;12057;52.042;6.830;2023-04-22T11:37:50;21.80;99.90
23755;DHT22;12057;52.042;6.830;2023-04-22T11:42:52;21.80;99.90
23755;DHT22;12057;52.042;6.830;2023-04-22T11:47:53;22.20;99.90
23755;DHT22;12057;52.042;6.830;2023-04-22T11:53:00;22.40;99.90
23755;DHT22;12057;52.042;6.830;2023-04-22T11:58:09;22.70;99.90
23755;DHT22;12057;52.042;6.830;2023-04-22T12:03:18;22.60;99.90
23755;DHT22;12057;52.042;6.830;2023-04-22T12:08:21;22.70;99.90
23755;DHT22;12057;52.042;6.830;2023-04-22T12:13:32;21.80;99.90
23755;DHT22;12057;52.042;6.830;2023-04-22T12:18:47;21.90;99.90
23755;DHT22;12057;52.042;6.830;2023-04-22T12:24:02;21.80;99.90
23755;DHT22;12057;52.042;6.830;2023-04-22T12:29:04;21.70;99.90
23755;DHT22;12057;52.042;6.830;2023-04-22T12:34:05;21.60;99.90
23755;DHT22;12057;52.042;6.830;2023-04-22T12:39:05;21.60;99.90
23755;DHT22;12057;52.042;6.830;2023-04-22T12:44:06;22.20;99.90
23755;DHT22;12057;52.042;6.830;2023-04-22T12:49:10;22.10;99.90
23755;DHT22;12057;52.042;6.830;2023-04-22T12:54:13;22.40;99.90
23755;DHT22;12057;52.042;6.830;2023-04-22T12:59:14;22.10;99.90
23755;DHT22;12057;52.042;6.830;2023-04-22T13:04:17;21.90;99.90
23755;DHT22;12057;52.042;6.830;2023-04-22T13:09:18;21.70;99.90
23755;DHT22;12057;52.042;6.830;2023-04-22T13:14:19;21.50;99.90
23755;DHT22;12057;52.042;6.830;2023-04-22T13:19:20;21.60;99.90
23755;DHT22;12057;52.042;6.830;2023-04-22T13:24:23;21.80;99.90
23755;DHT22;12057;52.042;6.830;2023-04-22T13:29:27;21.50;99.90
23755;DHT22;12057;52.042;6.830;2023-04-22T13:34:28;21.60;99.90
23755;DHT22;12057;52.042;6.830;2023-04-22T13:39:29;21.40;99.90
23755;DHT22;12057;52.042;6.830;2023-04-22T13:44:30;21.60;99.90
23755;DHT22;12057;52.042;6.830;2023-04-22T13:49:31;21.70;99.90
23755;DHT22;12057;52.042;6.830;2023-04-22T13:54:32;21.10;99.90
23755;DHT22;12057;52.042;6.830;2023-04-22T13:59:34;21.00;99.90
23755;DHT22;12057;52.042;6.830;2023-04-22T14:04:35;20.90;99.90
23755;DHT22;12057;52.042;6.830;2023-04-22T14:09:39;21.00;99.90
23755;DHT22;12057;52.042;6.830;2023-04-22T14:14:40;21.50;99.90
23755;DHT22;12057;52.042;6.830;2023-04-22T14:19:41;21.80;99.90
23755;DHT22;12057;52.042;6.830;2023-04-22T14:24:47;21.50;99.90
23755;DHT22;12057;52.042;6.830;2023-04-22T14:29:51;21.10;99.90
23755;DHT22;12057;52.042;6.830;2023-04-22T14:34:52;20.10;99.90
23755;DHT22;12057;52.042;6.830;2023-04-22T14:39:53;19.30;99.90
23755;DHT22;12057;52.042;6.830;2023-04-22T14:44:54;19.00;99.90
23755;DHT22;12057;52.042;6.830;2023-04-22T14:49:55;19.00;99.90
23755;DHT22;12057;52.042;6.830;2023-04-22T14:54:55;18.80;99.90
23755;DHT22;12057;52.042;6.830;2023-04-22T14:59:57;18.60;99.90
23755;DHT22;12057;52.042;6.830;2023-04-22T15:04:58;18.50;99.90
23755;DHT22;12057;52.042;6.830;2023-04-22T15:09:58;18.40;99.90
23755;DHT22;12057;52.042;6.830;2023-04-22T15:15:00;18.10;99.90
23755;DHT22;12057;52.042;6.830;2023-04-22T15:20:00;17.80;99.90
23755;DHT22;12057;52.042;6.830;2023-04-22T15:25:04;17.50;99.90
23755;DHT22;12057;52.042;6.830;2023-04-22T15:30:07;17.20;99.90
23755;DHT22;12057;52.042;6.830;2023-04-22T15:35:10;17.00;99.90
23755;DHT22;12057;52.042;6.830;2023-04-22T15:40:11;17.00;99.90
23755;DHT22;12057;52.042;6.830;2023-04-22T15:45:12;16.80;99.90
23755;DHT22;12057;52.042;6.830;2023-04-22T15:50:13;16.60;99.90
23755;DHT22;12057;52.042;6.830;2023-04-22T15:55:14;16.50;99.90
23755;DHT22;12057;52.042;6.830;2023-04-22T16:00:15;16.40;99.90
23755;DHT22;12057;52.042;6.830;2023-04-22T16:05:16;16.30;99.90
23755;DHT22;12057;52.042;6.830;2023-04-22T16:10:17;16.30;99.90
23755;DHT22;12057;52.042;6.830;2023-04-22T16:15:18;16.30;99.90
23755;DHT22;12057;52.042;6.830;2023-04-22T16:20:18;16.20;99.90
23755;DHT22;12057;52.042;6.830;2023-04-22T16:25:19;16.00;99.90
23755;DHT22;12057;52.042;6.830;2023-04-22T16:30:20;16.10;99.90
23755;DHT22;12057;52.042;6.830;2023-04-22T16:35:21;16.00;99.90
23755;DHT22;12057;52.042;6.830;2023-04-22T16:40:22;15.90;99.90
23755;DHT22;12057;52.042;6.830;2023-04-22T16:45:23;16.00;99.90
23755;DHT22;12057;52.042;6.830;2023-04-22T16:50:23;16.00;99.90
23755;DHT22;12057;52.042;6.830;2023-04-22T16:55:24;16.00;99.90
23755;DHT22;12057;52.042;6.830;2023-04-22T17:00:25;16.00;99.90
23755;DHT22;12057;52.042;6.830;2023-04-22T17:05:29;16.00;99.90
23755;DHT22;12057;52.042;6.830;2023-04-22T17:10:30;16.10;99.90
23755;DHT22;12057;52.042;6.830;2023-04-22T17:15:32;16.10;99.90
23755;DHT22;12057;52.042;6.830;2023-04-22T17:20:36;16.10;99.90
23755;DHT22;12057;52.042;6.830;2023-04-22T17:25:36;16.10;99.90
23755;DHT22;12057;52.042;6.830;2023-04-22T17:30:37;16.00;99.90
23755;DHT22;12057;52.042;6.830;2023-04-22T17:35:38;16.00;99.90
23755;DHT22;12057;52.042;6.830;2023-04-22T17:40:39;16.00;99.90
23755;DHT22;12057;52.042;6.830;2023-04-22T17:45:40;16.00;99.90
23755;DHT22;12057;52.042;6.830;2023-04-22T17:50:41;15.90;99.90
23755;DHT22;12057;52.042;6.830;2023-04-22T17:55:41;15.80;99.90
23755;DHT22;12057;52.042;6.830;2023-04-22T18:00:45;15.80;99.90
23755;DHT22;12057;52.042;6.830;2023-04-22T18:05:46;15.70;99.90
23755;DHT22;12057;52.042;6.830;2023-04-22T18:10:47;15.50;99.90
23755;DHT22;12057;52.042;6.830;2023-04-22T18:15:47;15.60;99.90
23755;DHT22;12057;52.042;6.830;2023-04-22T18:20:48;15.50;99.90
23755;DHT22;12057;52.042;6.830;2023-04-22T18:25:49;15.50;99.90
23755;DHT22;12057;52.042;6.830;2023-04-22T18:30:50;15.20;99.90
23755;DHT22;12057;52.042;6.830;2023-04-22T18:35:50;15.20;99.90
23755;DHT22;12057;52.042;6.830;2023-04-22T18:40:54;15.10;99.90
23755;DHT22;12057;52.042;6.830;2023-04-22T18:45:55;15.00;99.90
23755;DHT22;12057;52.042;6.830;2023-04-22T18:50:56;14.80;99.90
23755;DHT22;12057;52.042;6.830;2023-04-22T18:55:57;14.80;99.90
23755;DHT22;12057;52.042;6.830;2023-04-22T19:00:57;14.80;99.90
23755;DHT22;12057;52.042;6.830;2023-04-22T19:05:58;14.70;99.90
23755;DHT22;12057;52.042;6.830;2023-04-22T19:10:59;14.70;99.90
23755;DHT22;12057;52.042;6.830;2023-04-22T19:16:00;14.80;99.90
23755;DHT22;12057;52.042;6.830;2023-04-22T19:21:02;14.70;99.90
23755;DHT22;12057;52.042;6.830;2023-04-22T19:26:03;14.70;99.90
23755;DHT22;12057;52.042;6.830;2023-04-22T19:31:04;14.60;99.90
23755;DHT22;12057;52.042;6.830;2023-04-22T19:36:05;14.50;99.90
23755;DHT22;12057;52.042;6.830;2023-04-22T19:41:06;14.50;99.90
23755;DHT22;12057;52.042;6.830;2023-04-22T19:46:08;14.30;99.90
23755;DHT22;12057;52.042;6.830;2023-04-22T19:51:09;14.20;99.90
23755;DHT22;12057;52.042;6.830;2023-04-22T19:56:10;14.10;99.90
23755;DHT22;12057;52.042;6.830;2023-04-22T20:01:11;13.90;99.90
23755;DHT22;12057;52.042;6.830;2023-04-22T20:06:12;13.90;99.90
23755;DHT22;12057;52.042;6.830;2023-04-22T20:11:14;13.80;99.90
23755;DHT22;12057;52.042;6.830;2023-04-22T20:16:15;13.70;99.90
23755;DHT22;12057;52.042;6.830;2023-04-22T20:21:21;13.70;99.90
23755;DHT22;12057;52.042;6.830;2023-04-22T20:26:22;13.60;99.90
23755;DHT22;12057;52.042;6.830;2023-04-22T20:31:23;13.60;99.90
23755;DHT22;12057;52.042;6.830;2023-04-22T20:36:25;13.60;99.90
23755;DHT22;12057;52.042;6.830;2023-04-22T20:41:26;13.50;99.90
23755;DHT22;12057;52.042;6.830;2023-04-22T20:46:27;13.30;99.90
23755;DHT22;12057;52.042;6.830;2023-04-22T20:51:42;13.10;99.90
23755;DHT22;12057;52.042;6.830;2023-04-22T20:56:44;12.80;99.90
23755;DHT22;12057;52.042;6.830;2023-04-22T21:01:45;12.60;99.90
23755;DHT22;12057;52.042;6.830;2023-04-22T21:06:47;12.60;99.90
23755;DHT22;12057;52.042;6.830;2023-04-22T21:11:49;12.50;99.90
23755;DHT22;12057;52.042;6.830;2023-04-22T21:17:02;12.40;99.90
23755;DHT22;12057;52.042;6.830;2023-04-22T21:22:04;12.20;99.90
23755;DHT22;12057;52.042;6.830;2023-04-22T21:27:06;12.20;99.90
23755;DHT22;12057;52.042;6.830;2023-04-22T21:32:07;12.10;99.90
23755;DHT22;12057;52.042;6.830;2023-04-22T21:37:08;12.00;99.90
23755;DHT22;12057;52.042;6.830;2023-04-22T21:42:09;11.90;99.90
23755;DHT22;12057;52.042;6.830;2023-04-22T21:47:10;12.00;99.90
23755;DHT22;12057;52.042;6.830;2023-04-22T21:52:10;11.90;99.90
23755;DHT22;12057;52.042;6.830;2023-04-22T21:57:12;11.80;99.90
23755;DHT22;12057;52.042;6.830;2023-04-22T22:02:13;11.70;99.90
23755;DHT22;12057;52.042;6.830;2023-04-22T22:07:13;11.70;99.90
23755;DHT22;12057;52.042;6.830;2023-04-22T22:12:16;11.50;99.90
23755;DHT22;12057;52.042;6.830;2023-04-22T22:17:17;11.30;99.90
23755;DHT22;12057;52.042;6.830;2023-04-22T22:22:19;11.40;99.90
23755;DHT22;12057;52.042;6.830;2023-04-22T22:27:19;11.30;99.90
23755;DHT22;12057;52.042;6.830;2023-04-22T22:32:20;11.20;99.90
23755;DHT22;12057;52.042;6.830;2023-04-22T22:37:21;11.20;99.90
23755;DHT22;12057;52.042;6.830;2023-04-22T22:42:22;11.10;99.90
23755;DHT22;12057;52.042;6.830;2023-04-22T22:47:24;11.00;99.90
23755;DHT22;12057;52.042;6.830;2023-04-22T22:52:25;10.90;99.90
23755;DHT22;12057;52.042;6.830;2023-04-22T22:57:25;10.90;99.90
23755;DHT22;12057;52.042;6.830;2023-04-22T23:02:26;10.80;99.90
23755;DHT22;12057;52.042;6.830;2023-04-22T23:07:30;10.80;99.90
23755;DHT22;12057;52.042;6.830;2023-04-22T23:12:31;10.70;99.90
23755;DHT22;12057;52.042;6.830;2023-04-22T23:17:32;10.70;99.90
23755;DHT22;12057;52.042;6.830;2023-04-22T23:22:33;10.70;99.90
23755;DHT22;12057;52.042;6.830;2023-04-22T23:27:36;10.70;99.90
23755;DHT22;12057;52.042;6.830;2023-04-22T23:32:39;10.70;99.90
23755;DHT22;12057;52.042;6.830;2023-04-22T23:37:42;10.60;99.90
23755;DHT22;12057;52.042;6.830;2023-04-22T23:42:44;10.60;99.90
23755;DHT22;12057;52.042;6.830;2023-04-22T23:47:45;10.60;99.90
23755;DHT22;12057;52.042;6.830;2023-04-22T23:52:46;10.50;99.90
23755;DHT22;12057;52.042;6.830;2023-04-22T23:57:47;10.40;99.90
